Eastern Sierra Regional Airport
KBIH : rendu visible

Aérodrome :











RETROUVEZ-NOUS SUR...

 
LOGIN :

S'inscrire | Disclaimer

   EN    FR    IT 

 









Légende :    VFR   VFR Marginal   IFR   IFR Intensif   IFR Très Intensif
Visi : 
Plafond : 
>= 8 km
>= 3000ft
5 à 8 km
1000 à 3000 ft
1500m à 5 km
500 à 1000 ft
800 à 1500m
200 à 500 ft
< 800m
< 200 ft
Symboles :   Orages  Brouillard  Fortes neiges  Fortes précipitations  Vent > 20 kt






- Altitude de l'aérodrome : 4124 ft


KBIH - Eastern Sierra Regional

DERNIER METAR :
  • 031256Z AUTO 32004KT 10SM CLR M03/M13 A3038 RMK AO2 SLP285 T10331133

METARs EXPIRÉS :
  • 031156Z AUTO 35006KT 10SM CLR M04/M14 A3037 RMK AO2 SLP276 T10391139 10083 21056 51013
  • 031056Z AUTO 33005KT 10SM CLR M03/M14 A3037 RMK AO2 SLP271 T10331144

TAF KBIH
Valide du 03 à 12h jusqu'au 04 à 12h UTC


031120Z 0312/0412 32006KT P6SM SKC
FM032100 18006KT P6SM SKC
FM040300 32006KT P6SM SKC
FIR KZOA / Amérique du Nord



MET'MAP, la Météo Aéronautique d'un coup d'oeil ! - Copyright ORBIFLY Décembre 2007 - Disclaimer

ORBIFLY MET'MAP TEAM :

Programmation & Développement : Alexandra Zaïnal
Sur une idée originale de : Baudouin d'Aumeries
Assistance à la programmation : Marc-Olivier Méhu
Soutien technique & logistique : Manuel Goepfert

Contact : metmap@orbifly.com




SOURCES & CREDITS :

   NOAA       Earth
Advisory